Time;durP1;ratioP1;P1;durP2;ratioP2;P2;SDS_P1;SDS_P2;PMS_P1;PMS_P2;Temp;Humidity;BMP_temperature;BMP_pressure;BME280_temperature;BME280_humidity;BME280_pressure;Samples;Min_cycle;Max_cycle;Signal;HPM_P1;HPM_P2
2023/12/17 15:47:43;;;;;;;0.20;0.20;;;8.90;99.90;;;;;;5148310;27;20341;-72
2023/12/17 15:50:09;;;;;;;0.20;0.20;;;8.80;99.90;;;;;;5129193;27;20059;-73
2023/12/17 15:52:35;;;;;;;0.20;0.20;;;8.80;99.90;;;;;;5119440;28;20043;-73
2023/12/17 15:55:01;;;;;;;0.20;0.20;;;8.70;99.90;;;;;;5133503;27;20043;-73
2023/12/17 15:57:27;;;;;;;0.20;0.20;;;8.70;99.90;;;;;;5149973;27;20046;-72
2023/12/17 15:59:53;;;;;;;0.20;0.20;;;8.70;99.90;;;;;;5148407;27;20042;-71
2023/12/17 16:02:19;;;;;;;0.20;0.20;;;8.70;99.90;;;;;;5146961;27;20490;-72
2023/12/17 16:04:44;;;;;;;0.20;0.20;;;8.70;99.90;;;;;;5126620;28;20402;-72
2023/12/17 16:07:13;;;;;;;0.20;0.20;;;8.70;99.90;;;;;;5127728;28;20070;-71
2023/12/17 16:09:40;;;;;;;0.20;0.20;;;8.70;99.90;;;;;;5117868;27;20520;-71
2023/12/17 16:12:06;;;;;;;0.20;0.20;;;8.70;99.90;;;;;;5146978;27;20078;-73
2023/12/17 16:14:32;;;;;;;0.20;0.20;;;8.70;99.90;;;;;;5123852;27;20047;-73
2023/12/17 16:16:58;;;;;;;0.20;0.20;;;8.70;99.90;;;;;;5146460;27;20047;-71
2023/12/17 16:19:24;;;;;;;0.20;0.20;;;8.70;99.90;;;;;;5147950;27;20059;-72
2023/12/17 16:21:53;;;;;;;0.20;0.20;;;8.70;99.90;;;;;;5126341;28;20054;-71
2023/12/17 16:24:19;;;;;;;0.20;0.20;;;8.60;99.90;;;;;;5112772;28;20043;-72
2023/12/17 16:26:45;;;;;;;0.20;0.20;;;8.60;99.90;;;;;;5108822;27;20043;-75
2023/12/17 16:29:11;;;;;;;0.20;0.20;;;8.60;99.90;;;;;;5109360;28;20391;-75
2023/12/17 16:31:37;;;;;;;0.20;0.20;;;8.60;99.90;;;;;;5109675;28;20164;-75
2023/12/17 16:34:03;;;;;;;0.20;0.20;;;8.70;99.90;;;;;;5119291;28;20040;-75
2023/12/17 16:36:40;;;;;;;0.20;0.20;;;8.60;99.90;;;;;;5116645;27;20042;-74
2023/12/17 16:39:06;;;;;;;0.10;0.10;;;8.50;99.90;;;;;;5129140;27;20478;-74
2023/12/17 16:41:32;;;;;;;0.15;0.15;;;8.50;99.90;;;;;;5123113;27;20052;-75
2023/12/17 16:43:58;;;;;;;0.20;0.20;;;8.50;99.90;;;;;;5116188;27;20121;-75
2023/12/17 16:46:24;;;;;;;0.20;0.20;;;8.50;99.90;;;;;;5120616;28;20516;-75
2023/12/17 16:48:49;;;;;;;0.20;0.20;;;8.60;99.90;;;;;;5126610;27;20047;-76
2023/12/17 16:51:15;;;;;;;0.20;0.20;;;8.50;99.90;;;;;;5126301;27;20043;-75
2023/12/17 16:53:41;;;;;;;0.20;0.20;;;8.50;99.90;;;;;;5128712;27;20047;-76
2023/12/17 16:56:08;;;;;;;0.20;0.20;;;8.40;99.90;;;;;;5105458;27;20046;-76
2023/12/17 16:58:36;;;;;;;0.15;0.15;;;8.90;99.90;;;;;;5113232;27;20048;-75
2023/12/17 17:01:04;;;;;;;0.20;0.20;;;8.40;99.90;;;;;;5099984;28;20043;-76
2023/12/17 17:03:31;;;;;;;0.20;0.20;;;8.40;99.90;;;;;;5095256;28;20044;-74
2023/12/17 17:05:57;;;;;;;0.20;0.20;;;8.30;99.90;;;;;;5096702;28;20056;-75
2023/12/17 17:08:23;;;;;;;0.13;0.13;;;8.30;99.90;;;;;;5095381;28;20446;-74
2023/12/17 17:10:49;;;;;;;0.20;0.20;;;8.30;99.90;;;;;;5097091;27;20236;-75
2023/12/17 17:13:14;;;;;;;0.20;0.20;;;8.40;99.90;;;;;;5109409;28;20082;-75
2023/12/17 17:15:40;;;;;;;0.20;0.20;;;8.60;99.90;;;;;;5096108;27;20049;-75
2023/12/17 17:18:06;;;;;;;0.20;0.20;;;8.80;99.90;;;;;;5107384;28;20046;-75
2023/12/17 17:20:31;;;;;;;0.20;0.20;;;8.30;99.90;;;;;;5103296;27;20512;-76
2023/12/17 17:22:57;;;;;;;0.20;0.20;;;9.00;99.90;;;;;;5094736;28;20043;-75
2023/12/17 17:25:22;;;;;;;0.17;0.17;;;8.60;99.90;;;;;;5092222;28;20414;-76
2023/12/17 17:27:48;;;;;;;0.20;0.20;;;8.30;99.90;;;;;;5094646;28;20379;-74
2023/12/17 17:30:16;;;;;;;0.20;0.20;;;8.30;99.90;;;;;;5107415;27;20400;-76
2023/12/17 17:32:41;;;;;;;0.20;0.20;;;8.20;99.90;;;;;;5132356;27;20059;-76
2023/12/17 17:35:08;;;;;;;0.20;0.20;;;8.20;99.90;;;;;;5107966;27;20681;-75
2023/12/17 17:37:35;;;;;;;0.20;0.20;;;8.20;99.90;;;;;;5115205;27;20525;-75
2023/12/17 17:40:01;;;;;;;0.20;0.20;;;8.20;99.90;;;;;;5091177;28;20073;-75
2023/12/17 17:42:28;;;;;;;0.20;0.20;;;8.80;99.90;;;;;;5095008;28;20040;-74
2023/12/17 17:44:53;;;;;;;0.20;0.20;;;8.10;99.90;;;;;;5093890;28;20084;-75
2023/12/17 17:47:19;;;;;;;0.20;0.20;;;8.70;99.90;;;;;;5097252;27;20051;-76
2023/12/17 17:49:45;;;;;;;0.20;0.20;;;8.30;99.90;;;;;;5101005;28;20062;-75
2023/12/17 17:52:11;;;;;;;0.17;0.17;;;8.20;99.90;;;;;;5112767;27;20055;-78
2023/12/17 17:54:37;;;;;;;0.20;0.20;;;9.00;99.90;;;;;;5117231;27;20040;-75
2023/12/17 17:57:03;;;;;;;0.20;0.20;;;8.30;99.90;;;;;;5127736;27;20039;-75
2023/12/17 17:59:29;;;;;;;0.20;0.20;;;8.30;99.90;;;;;;5111624;27;20491;-76
2023/12/17 18:01:55;;;;;;;0.20;0.20;;;8.40;99.90;;;;;;5099311;28;20498;-75
2023/12/17 18:04:20;;;;;;;0.20;0.20;;;8.40;99.90;;;;;;5096681;28;20128;-75
2023/12/17 18:06:46;;;;;;;0.20;0.20;;;8.40;99.90;;;;;;5100487;27;20081;-75
2023/12/17 18:09:14;;;;;;;0.20;0.20;;;8.50;99.90;;;;;;5109940;28;20047;-76
2023/12/17 18:11:40;;;;;;;0.20;0.20;;;8.50;99.90;;;;;;5108650;28;20048;-76
2023/12/17 18:14:06;;;;;;;0.20;0.20;;;8.40;99.90;;;;;;5097447;27;20142;-75
2023/12/17 18:16:31;;;;;;;0.20;0.20;;;8.40;99.90;;;;;;5108149;28;20055;-76
2023/12/17 18:18:57;;;;;;;0.20;0.20;;;8.50;99.90;;;;;;5093706;28;20073;-75
2023/12/17 18:21:22;;;;;;;0.10;0.10;;;8.50;99.90;;;;;;5102750;28;20089;-76
2023/12/17 18:23:48;;;;;;;0.20;0.20;;;8.50;99.90;;;;;;5097373;27;20031;-75
2023/12/17 18:26:21;;;;;;;0.20;0.20;;;8.50;99.90;;;;;;5096061;27;20043;-76
2023/12/17 18:28:47;;;;;;;0.20;0.20;;;8.50;99.90;;;;;;5092859;28;20031;-75
2023/12/17 18:31:13;;;;;;;0.20;0.20;;;8.50;99.90;;;;;;5096259;27;20401;-77
2023/12/17 18:33:39;;;;;;;0.20;0.20;;;8.60;99.90;;;;;;5124922;27;20124;-77
2023/12/17 18:36:05;;;;;;;0.20;0.20;;;8.60;99.90;;;;;;5095010;28;20067;-76
2023/12/17 18:38:30;;;;;;;0.20;0.20;;;8.60;99.90;;;;;;5094145;28;20133;-77
2023/12/17 18:40:56;;;;;;;0.20;0.20;;;8.60;99.90;;;;;;5109710;28;20535;-76
2023/12/17 18:43:22;;;;;;;0.20;0.20;;;8.60;99.90;;;;;;5109822;27;20043;-76
2023/12/17 18:45:48;;;;;;;0.20;0.20;;;8.70;99.90;;;;;;5108254;27;20058;-76
2023/12/17 18:48:13;;;;;;;0.20;0.20;;;9.30;99.90;;;;;;5124627;27;20044;-76
2023/12/17 18:50:39;;;;;;;0.20;0.20;;;8.70;99.90;;;;;;5104306;28;20040;-76
2023/12/17 18:53:06;;;;;;;0.10;0.10;;;8.70;99.90;;;;;;5095351;28;20039;-77
2023/12/17 18:55:32;;;;;;;0.20;0.20;;;8.70;99.90;;;;;;5102794;28;20044;-76
2023/12/17 18:57:58;;;;;;;0.20;0.20;;;8.70;99.90;;;;;;5111494;28;20048;-77
2023/12/17 19:00:24;;;;;;;0.20;0.20;;;8.70;99.90;;;;;;5100439;27;20039;-76
2023/12/17 19:02:50;;;;;;;0.20;0.20;;;8.80;99.90;;;;;;5097178;27;20043;-76
2023/12/17 19:05:16;;;;;;;0.20;0.20;;;8.70;99.90;;;;;;5127154;27;20111;-76
2023/12/17 19:07:41;;;;;;;0.20;0.20;;;8.70;99.90;;;;;;5130692;27;20035;-77
2023/12/17 19:10:08;;;;;;;0.20;0.20;;;8.80;99.90;;;;;;5120346;27;20031;-76
2023/12/17 19:12:33;;;;;;;0.13;0.13;;;8.80;99.90;;;;;;5111952;27;20039;-77
2023/12/17 19:14:59;;;;;;;0.20;0.20;;;8.80;99.90;;;;;;5130184;27;20684;-75
2023/12/17 19:17:25;;;;;;;0.20;0.20;;;8.80;99.90;;;;;;5107353;28;20035;-76
2023/12/17 19:19:51;;;;;;;0.20;0.20;;;8.80;99.90;;;;;;5096330;28;20173;-76
2023/12/17 19:22:19;;;;;;;0.20;0.20;;;8.80;99.90;;;;;;5093061;28;20126;-76
2023/12/17 19:24:44;;;;;;;0.17;0.17;;;8.80;99.90;;;;;;5087361;28;20497;-76
2023/12/17 19:27:10;;;;;;;0.10;0.10;;;9.10;99.90;;;;;;5080516;27;20093;-77
2023/12/17 19:29:39;;;;;;;0.20;0.20;;;8.80;99.90;;;;;;5124267;27;20389;-76
2023/12/17 19:32:07;;;;;;;0.15;0.15;;;8.80;99.90;;;;;;5111422;27;20070;-76
2023/12/17 19:34:38;;;;;;;0.20;0.20;;;8.90;99.90;;;;;;5105230;28;20487;-76
2023/12/17 19:37:04;;;;;;;0.17;0.17;;;8.90;99.90;;;;;;5107684;28;20039;-74
2023/12/17 19:39:30;;;;;;;0.20;0.20;;;8.80;99.90;;;;;;5106690;28;20070;-75
2023/12/17 19:41:56;;;;;;;0.20;0.20;;;8.90;99.90;;;;;;5109137;28;20028;-76
2023/12/17 19:44:21;;;;;;;0.10;0.10;;;8.80;99.90;;;;;;5095126;28;20050;-76
2023/12/17 19:46:48;;;;;;;0.17;0.17;;;8.80;99.90;;;;;;5120103;28;20051;-75
2023/12/17 19:49:13;;;;;;;0.10;0.10;;;8.80;99.90;;;;;;5103241;28;20048;-75
2023/12/17 19:51:39;;;;;;;0.20;0.20;;;8.90;99.90;;;;;;5108389;28;20047;-76
2023/12/17 19:54:05;;;;;;;0.20;0.20;;;8.80;99.90;;;;;;5111593;28;20070;-76
2023/12/17 19:56:31;;;;;;;0.17;0.17;;;8.80;99.90;;;;;;5122443;28;20116;-75
2023/12/17 19:59:02;;;;;;;0.20;0.20;;;8.90;99.90;;;;;;5107858;28;20051;-76
2023/12/17 20:01:28;;;;;;;0.20;0.20;;;8.90;99.90;;;;;;5111082;28;20505;-76
2023/12/17 20:03:54;;;;;;;0.20;0.20;;;8.90;99.90;;;;;;5095266;28;20517;-76
2023/12/17 20:06:21;;;;;;;0.20;0.20;;;8.80;99.90;;;;;;5106514;28;20126;-75
2023/12/17 20:08:47;;;;;;;0.20;0.20;;;8.80;99.90;;;;;;5109630;28;20051;-76
2023/12/17 20:11:12;;;;;;;0.20;0.20;;;8.90;99.90;;;;;;5108134;28;20065;-75
2023/12/17 20:13:38;;;;;;;0.38;0.38;;;8.80;99.90;;;;;;5109808;28;20043;-76
2023/12/17 20:16:06;;;;;;;0.20;0.20;;;8.90;99.90;;;;;;5099410;28;20534;-76
2023/12/17 20:18:31;;;;;;;0.10;0.10;;;8.90;99.90;;;;;;5092396;28;20059;-76
2023/12/17 20:21:00;;;;;;;0.20;0.20;;;8.90;99.90;;;;;;5106224;28;20117;-76
2023/12/17 20:23:26;;;;;;;0.20;0.20;;;9.30;99.90;;;;;;5111019;28;20043;-74
2023/12/17 20:25:55;;;;;;;0.20;0.20;;;8.90;99.90;;;;;;5098374;28;20134;-76
2023/12/17 20:28:22;;;;;;;0.20;0.20;;;8.90;99.90;;;;;;5101397;28;20047;-76
2023/12/17 20:30:47;;;;;;;0.20;0.20;;;8.90;99.90;;;;;;5092045;28;20386;-75
2023/12/17 20:33:13;;;;;;;0.20;0.20;;;8.90;99.90;;;;;;5094754;28;20039;-76
2023/12/17 20:35:40;;;;;;;0.20;0.20;;;9.10;99.90;;;;;;5104524;28;20067;-75
2023/12/17 20:38:15;;;;;;;0.20;0.20;;;8.90;99.90;;;;;;5104028;27;20072;-75
2023/12/17 20:40:44;;;;;;;0.10;0.10;;;8.90;99.90;;;;;;5098391;28;20134;-76
2023/12/17 20:43:11;;;;;;;0.20;0.20;;;8.90;99.90;;;;;;5109112;28;20131;-76
2023/12/17 20:45:37;;;;;;;0.20;0.20;;;8.90;99.90;;;;;;5107763;27;20047;-76
2023/12/17 20:48:06;;;;;;;0.20;0.20;;;8.90;99.90;;;;;;5115122;27;20397;-76
2023/12/17 20:50:32;;;;;;;0.20;0.20;;;8.90;99.90;;;;;;5097743;27;20043;-75
2023/12/17 20:52:58;;;;;;;0.10;0.10;;;8.90;99.90;;;;;;5106466;28;20513;-75
2023/12/17 20:55:24;;;;;;;0.15;0.15;;;8.90;99.90;;;;;;5097428;27;20043;-77
2023/12/17 20:57:50;;;;;;;0.10;0.10;;;9.00;99.90;;;;;;5105149;27;20071;-76
2023/12/17 21:00:17;;;;;;;0.20;0.20;;;8.90;99.90;;;;;;5100098;27;20040;-76
2023/12/17 21:02:43;;;;;;;0.10;0.10;;;8.90;99.90;;;;;;5107152;27;20390;-77
2023/12/17 21:05:09;;;;;;;0.20;0.20;;;8.90;99.90;;;;;;5108839;28;20436;-76
2023/12/17 21:07:35;;;;;;;0.20;0.20;;;8.90;99.90;;;;;;5097138;27;20135;-76
2023/12/17 21:10:00;;;;;;;0.10;0.10;;;8.90;99.90;;;;;;5103698;27;20391;-76
2023/12/17 21:12:26;;;;;;;0.10;0.10;;;8.90;99.90;;;;;;5105085;27;20391;-76
2023/12/17 21:14:52;;;;;;;0.10;0.10;;;8.90;99.90;;;;;;5126881;27;20136;-73
2023/12/17 21:17:18;;;;;;;0.20;0.20;;;8.90;99.90;;;;;;5114604;27;20481;-72
2023/12/17 21:19:43;;;;;;;0.20;0.20;;;8.90;99.90;;;;;;5120847;27;20414;-73
2023/12/17 21:22:09;;;;;;;0.20;0.20;;;8.90;99.90;;;;;;5105149;28;20043;-73
2023/12/17 21:24:35;;;;;;;0.20;0.20;;;8.90;99.90;;;;;;5097305;27;20411;-73
2023/12/17 21:27:01;;;;;;;0.20;0.20;;;8.90;99.90;;;;;;5100473;27;20383;-73
2023/12/17 21:29:26;;;;;;;0.20;0.20;;;8.90;99.90;;;;;;5097685;27;20046;-73
2023/12/17 21:31:52;;;;;;;0.20;0.20;;;8.90;99.90;;;;;;5097625;28;20048;-73
2023/12/17 21:34:18;;;;;;;0.20;0.20;;;8.90;99.90;;;;;;5097577;28;20044;-73
2023/12/17 21:36:44;;;;;;;0.20;0.20;;;8.90;99.90;;;;;;5107219;27;20982;-73
2023/12/17 21:39:10;;;;;;;0.10;0.10;;;8.90;99.90;;;;;;5102227;28;20046;-73
2023/12/17 21:41:35;;;;;;;0.20;0.20;;;8.90;99.90;;;;;;5098384;28;20040;-73
2023/12/17 21:44:01;;;;;;;0.20;0.20;;;8.90;99.90;;;;;;5095385;27;20122;-73
2023/12/17 21:46:27;;;;;;;0.13;0.13;;;8.90;99.90;;;;;;5108773;28;20052;-73
2023/12/17 21:48:53;;;;;;;0.17;0.17;;;8.90;99.90;;;;;;5095575;28;20048;-73
2023/12/17 21:51:29;;;;;;;0.20;0.20;;;8.90;99.90;;;;;;5114208;27;20046;-73
2023/12/17 21:53:55;;;;;;;0.20;0.20;;;8.90;99.90;;;;;;5112267;27;20039;-73
2023/12/17 21:56:20;;;;;;;0.15;0.15;;;8.90;99.90;;;;;;5095837;28;20044;-73
2023/12/17 21:58:46;;;;;;;0.15;0.15;;;8.90;99.90;;;;;;5106855;27;20406;-73
2023/12/17 22:01:12;;;;;;;0.20;0.20;;;9.00;99.90;;;;;;5099564;28;20390;-73
2023/12/17 22:03:39;;;;;;;0.20;0.20;;;8.90;99.90;;;;;;5102847;27;20477;-73
2023/12/17 22:06:05;;;;;;;0.20;0.20;;;8.90;99.90;;;;;;5099817;28;20130;-73
2023/12/17 22:08:31;;;;;;;0.17;0.17;;;8.90;99.90;;;;;;5098758;28;20138;-73
2023/12/17 22:10:56;;;;;;;0.20;0.20;;;8.90;99.90;;;;;;5101884;27;20119;-73
2023/12/17 22:13:22;;;;;;;0.20;0.20;;;8.90;99.90;;;;;;5098589;28;20044;-73
2023/12/17 22:15:48;;;;;;;0.20;0.20;;;8.90;99.90;;;;;;5117466;27;20509;-73
2023/12/17 22:18:14;;;;;;;0.10;0.10;;;8.90;99.90;;;;;;5093559;28;20559;-73
2023/12/17 22:20:40;;;;;;;0.10;0.10;;;8.90;99.90;;;;;;5117206;27;20435;-74
2023/12/17 22:23:06;;;;;;;0.20;0.20;;;8.90;99.90;;;;;;5105728;27;20393;-74
2023/12/17 22:25:32;;;;;;;0.10;0.10;;;8.90;99.90;;;;;;5101917;28;20070;-73
2023/12/17 22:27:58;;;;;;;0.20;0.20;;;8.90;99.90;;;;;;5110952;27;20043;-73
2023/12/17 22:30:23;;;;;;;0.20;0.20;;;8.90;99.90;;;;;;5105655;27;20076;-73
2023/12/17 22:32:49;;;;;;;0.20;0.20;;;8.90;99.90;;;;;;5100644;28;20051;-73
2023/12/17 22:35:15;;;;;;;0.20;0.20;;;8.90;99.90;;;;;;5100611;27;20383;-73
2023/12/17 22:37:41;;;;;;;0.17;0.17;;;8.90;99.90;;;;;;5119949;27;20039;-74
2023/12/17 22:40:07;;;;;;;0.10;0.10;;;8.90;99.90;;;;;;5103835;28;20043;-73
2023/12/17 22:42:33;;;;;;;0.10;0.10;;;8.90;99.90;;;;;;5110029;27;20043;-73
2023/12/17 22:44:58;;;;;;;0.20;0.20;;;8.90;99.90;;;;;;5097004;28;20100;-73
2023/12/17 22:47:28;;;;;;;0.20;0.20;;;8.90;99.90;;;;;;5118906;27;20047;-74
2023/12/17 22:49:57;;;;;;;0.15;0.15;;;8.80;99.90;;;;;;5097419;28;20134;-73
2023/12/17 22:52:23;;;;;;;0.20;0.20;;;8.90;99.90;;;;;;5093183;28;20047;-72
2023/12/17 22:54:49;;;;;;;0.20;0.20;;;8.80;99.90;;;;;;5098842;28;20442;-72
2023/12/17 22:57:15;;;;;;;0.20;0.20;;;8.90;99.90;;;;;;5111957;27;20399;-73
2023/12/17 22:59:42;;;;;;;0.20;0.20;;;8.90;99.90;;;;;;5105853;27;20469;-73
2023/12/17 23:02:08;;;;;;;0.20;0.20;;;8.80;99.90;;;;;;5098246;28;20846;-73
2023/12/17 23:04:39;;;;;;;0.20;0.20;;;8.80;99.90;;;;;;5106415;27;20044;-73
2023/12/17 23:07:04;;;;;;;0.20;0.20;;;8.80;99.90;;;;;;5101674;28;20052;-73
2023/12/17 23:09:30;;;;;;;0.20;0.20;;;8.80;99.90;;;;;;5095427;28;20050;-73
2023/12/17 23:11:56;;;;;;;0.20;0.20;;;8.80;99.90;;;;;;5122216;27;20047;-73
2023/12/17 23:14:22;;;;;;;0.20;0.20;;;8.80;99.90;;;;;;5103378;28;20074;-73
2023/12/17 23:16:47;;;;;;;0.20;0.20;;;8.80;99.90;;;;;;5097412;28;20054;-73
2023/12/17 23:19:13;;;;;;;0.20;0.20;;;8.80;99.90;;;;;;5097519;28;20104;-74
2023/12/17 23:21:39;;;;;;;0.20;0.20;;;8.80;99.90;;;;;;5092965;28;20051;-73
2023/12/17 23:24:04;;;;;;;0.20;0.20;;;8.80;99.90;;;;;;5093165;27;20131;-73
2023/12/17 23:26:30;;;;;;;0.15;0.15;;;8.80;99.90;;;;;;5096619;27;20522;-73
2023/12/17 23:28:56;;;;;;;0.17;0.17;;;8.80;99.90;;;;;;5099482;28;20603;-74
2023/12/17 23:31:22;;;;;;;0.20;0.20;;;8.80;99.90;;;;;;5102535;28;20517;-73
2023/12/17 23:33:48;;;;;;;0.20;0.20;;;8.80;99.90;;;;;;5103427;28;20043;-73
2023/12/17 23:36:13;;;;;;;0.20;0.20;;;8.80;99.90;;;;;;5102271;28;20046;-73
2023/12/17 23:38:39;;;;;;;0.10;0.10;;;8.80;99.90;;;;;;5096525;28;20047;-73
2023/12/17 23:41:05;;;;;;;0.20;0.20;;;8.80;99.90;;;;;;5117117;27;20487;-73
2023/12/17 23:43:31;;;;;;;0.10;0.10;;;8.80;99.90;;;;;;5107956;28;20087;-73
2023/12/17 23:45:56;;;;;;;0.20;0.20;;;8.80;99.90;;;;;;5102066;28;20056;-73
2023/12/17 23:48:22;;;;;;;0.20;0.20;;;8.80;99.90;;;;;;5094686;28;20130;-73
2023/12/17 23:50:47;;;;;;;0.20;0.20;;;8.80;99.90;;;;;;5091759;28;20048;-73
2023/12/17 23:53:13;;;;;;;0.20;0.20;;;8.80;99.90;;;;;;5098589;28;20051;-73
2023/12/17 23:55:39;;;;;;;0.20;0.20;;;8.80;99.90;;;;;;5093836;28;20077;-73
2023/12/17 23:58:04;;;;;;;0.20;0.20;;;8.80;99.90;;;;;;5122434;28;20395;-73
